createdAt,value
2018-11-25T00:00:55.508Z,20.73
2018-11-25T00:03:24.030Z,17.93
2018-11-25T00:05:52.536Z,18.80
2018-11-25T00:08:21.103Z,18.83
2018-11-25T00:10:49.611Z,21.43
2018-11-25T00:13:18.154Z,18.93
2018-11-25T00:15:46.675Z,19.77
2018-11-25T00:18:15.231Z,19.27
2018-11-25T00:20:43.758Z,22.90
2018-11-25T00:23:12.296Z,25.83
2018-11-25T00:25:40.824Z,21.60
2018-11-25T00:28:09.332Z,22.73
2018-11-25T00:30:37.911Z,20.47
2018-11-25T00:33:06.587Z,25.30
2018-11-25T00:35:35.101Z,23.47
2018-11-25T00:38:03.659Z,23.70
2018-11-25T00:40:32.166Z,21.57
2018-11-25T00:43:00.721Z,24.83
2018-11-25T00:45:29.277Z,28.20
2018-11-25T00:47:57.805Z,24.70
2018-11-25T00:50:26.344Z,23.07
2018-11-25T00:52:54.896Z,22.00
2018-11-25T00:55:23.390Z,22.97
2018-11-25T00:57:51.982Z,23.17
2018-11-25T01:00:20.769Z,23.20
2018-11-25T01:02:50.422Z,20.23
2018-11-25T01:05:18.982Z,17.93
2018-11-25T01:07:47.546Z,17.90
2018-11-25T01:10:16.766Z,20.80
2018-11-25T01:12:45.745Z,25.37
2018-11-25T01:15:17.186Z,20.87
2018-11-25T01:17:45.913Z,18.87
2018-11-25T01:20:16.916Z,19.80
2018-11-25T01:22:45.443Z,20.17
2018-11-25T01:25:14.069Z,25.43
2018-11-25T01:27:42.591Z,18.57
2018-11-25T01:30:15.172Z,19.43
2018-11-25T01:32:44.438Z,21.60
2018-11-25T01:35:13.266Z,19.67
2018-11-25T01:37:41.935Z,22.43
2018-11-25T01:40:12.508Z,22.67
2018-11-25T01:42:41.248Z,23.40
2018-11-25T01:45:12.057Z,21.07
2018-11-25T01:47:40.686Z,23.47
2018-11-25T01:50:10.976Z,21.50
2018-11-25T01:52:39.735Z,23.23
2018-11-25T01:55:10.157Z,25.23
2018-11-25T01:57:38.913Z,24.37
2018-11-25T02:00:12.110Z,23.37
2018-11-25T02:02:40.968Z,17.37
2018-11-25T02:05:09.775Z,16.93
2018-11-25T02:07:38.559Z,22.37
2018-11-25T02:10:10.324Z,19.60
2018-11-25T02:12:39.059Z,14.50
2018-11-25T02:15:09.284Z,18.47
2018-11-25T02:17:38.009Z,20.63
2018-11-25T02:20:18.454Z,23.27
2018-11-25T02:22:47.174Z,13.90
2018-11-25T02:25:16.105Z,22.10
2018-11-25T02:27:44.863Z,17.33
2018-11-25T02:30:14.563Z,18.70
2018-11-25T02:32:58.206Z,16.90
2018-11-25T02:35:26.746Z,19.00
2018-11-25T02:37:55.270Z,21.33
2018-11-25T02:40:23.854Z,18.57
2018-11-25T02:42:53.605Z,17.93
2018-11-25T02:45:22.477Z,13.40
2018-11-25T02:50:48.696Z,18.53
2018-11-25T02:53:18.144Z,16.83
2018-11-25T02:55:47.827Z,17.70
2018-11-25T02:58:16.432Z,19.13
2018-11-25T03:00:45.197Z,14.37
2018-11-25T03:03:13.920Z,18.27
2018-11-25T03:05:42.582Z,12.33
2018-11-25T03:08:11.382Z,17.57
2018-11-25T03:10:40.092Z,15.17
2018-11-25T03:13:08.848Z,16.20
2018-11-25T03:15:37.591Z,12.27
2018-11-25T03:18:09.215Z,18.80
2018-11-25T03:20:50.895Z,17.67
2018-11-25T03:23:19.407Z,18.73
2018-11-25T03:25:48.034Z,16.50
2018-11-25T03:28:16.602Z,15.13
2018-11-25T03:30:45.227Z,17.53
2018-11-25T03:33:13.826Z,14.33
2018-11-25T03:35:42.360Z,16.07
2018-11-25T03:38:11.630Z,15.20
2018-11-25T03:40:40.378Z,18.17
2018-11-25T03:43:08.930Z,16.80
2018-11-25T03:45:37.432Z,15.53
2018-11-25T03:48:06.736Z,17.07
2018-11-25T03:50:35.290Z,17.53
2018-11-25T03:53:03.903Z,14.00
2018-11-25T03:55:32.427Z,21.67
2018-11-25T03:58:00.995Z,17.57
2018-11-25T04:00:29.552Z,21.17
2018-11-25T04:02:58.876Z,21.93
2018-11-25T04:05:27.424Z,20.10
2018-11-25T04:07:56.021Z,20.33
2018-11-25T04:10:24.594Z,19.63
2018-11-25T04:12:53.129Z,15.57
2018-11-25T04:15:22.713Z,19.93
2018-11-25T04:17:54.285Z,16.57
2018-11-25T04:20:22.951Z,16.67
2018-11-25T04:22:51.562Z,25.30
2018-11-25T04:25:20.100Z,18.00
2018-11-25T04:27:48.638Z,15.60
2018-11-25T04:30:18.773Z,19.23
2018-11-25T04:32:49.192Z,23.07
2018-11-25T04:35:17.737Z,15.67
2018-11-25T04:37:46.248Z,13.60
2018-11-25T04:40:15.646Z,16.27
2018-11-25T04:42:44.181Z,19.20
2018-11-25T04:45:14.403Z,19.70
2018-11-25T04:47:43.049Z,17.60
2018-11-25T04:50:15.466Z,15.33
2018-11-25T04:52:44.029Z,14.37
2018-11-25T04:55:12.621Z,19.57
2018-11-25T04:57:41.213Z,19.23
2018-11-25T05:00:12.032Z,14.43
2018-11-25T05:02:41.373Z,15.97
2018-11-25T05:05:11.179Z,15.80
2018-11-25T05:07:39.791Z,24.20
2018-11-25T05:10:12.380Z,17.17
2018-11-25T05:12:41.023Z,16.50
2018-11-25T05:15:11.890Z,14.83
2018-11-25T05:17:40.370Z,17.77
2018-11-25T05:20:10.188Z,18.17
2018-11-25T05:22:38.708Z,14.73
2018-11-25T05:25:11.971Z,16.90
2018-11-25T05:27:42.751Z,18.60
2018-11-25T05:30:12.526Z,19.47
2018-11-25T05:32:41.090Z,14.70
2018-11-25T05:35:14.013Z,14.23
2018-11-25T05:37:42.533Z,15.30
2018-11-25T05:40:12.490Z,20.90
2018-11-25T05:42:41.154Z,18.87
2018-11-25T05:45:21.418Z,19.37
2018-11-25T05:47:51.045Z,18.67
2018-11-25T05:50:22.226Z,22.97
2018-11-25T05:52:50.891Z,16.97
2018-11-25T05:55:20.488Z,16.73
2018-11-25T05:57:49.330Z,18.13
2018-11-25T06:00:19.837Z,20.97
2018-11-25T06:02:49.592Z,20.77
2018-11-25T06:05:18.464Z,15.77
2018-11-25T06:07:47.604Z,14.93
2018-11-25T06:10:16.110Z,14.43
2018-11-25T06:12:44.725Z,18.10
2018-11-25T06:15:14.107Z,15.43
2018-11-25T06:17:42.756Z,18.87
2018-11-25T06:20:13.582Z,16.13
2018-11-25T06:22:42.288Z,16.70
2018-11-25T06:25:15.108Z,21.00
2018-11-25T06:27:43.951Z,16.90
2018-11-25T06:30:13.617Z,17.83
2018-11-25T06:32:42.240Z,16.50
2018-11-25T06:35:12.546Z,15.10
2018-11-25T06:37:41.152Z,16.63
2018-11-25T06:40:11.251Z,18.00
2018-11-25T06:42:40.188Z,14.90
2018-11-25T06:45:14.714Z,18.47
2018-11-25T06:47:43.332Z,18.67
2018-11-25T06:50:12.630Z,17.33
2018-11-25T06:52:41.192Z,19.20
2018-11-25T06:55:11.044Z,21.17
2018-11-25T06:57:39.598Z,22.90
2018-11-25T07:00:13.974Z,18.97
2018-11-25T07:02:43.392Z,20.93
2018-11-25T07:05:12.044Z,24.07
2018-11-25T07:07:40.589Z,22.20
2018-11-25T07:10:11.562Z,18.57
2018-11-25T07:12:40.075Z,21.13
2018-11-25T07:15:17.453Z,20.30
2018-11-25T07:17:46.155Z,23.03
2018-11-25T07:20:16.600Z,21.47
2018-11-25T07:22:45.177Z,25.50
2018-11-25T07:25:14.835Z,23.27
2018-11-25T07:27:43.374Z,25.37
2018-11-25T07:30:28.954Z,18.97
2018-11-25T07:32:59.589Z,17.77
2018-11-25T07:35:28.581Z,17.50
2018-11-25T07:37:57.294Z,20.10
2018-11-25T07:40:26.366Z,21.57
2018-11-25T07:42:55.018Z,21.63
2018-11-25T07:45:30.174Z,15.97
2018-11-25T07:47:53.441Z,19.67
2018-11-25T07:50:22.020Z,20.73
2018-11-25T07:52:51.122Z,17.50
2018-11-25T07:55:21.907Z,16.17
2018-11-25T07:57:51.702Z,16.97
2018-11-25T08:00:21.729Z,19.47
2018-11-25T08:02:53.826Z,17.60
2018-11-25T08:05:23.809Z,18.10
2018-11-25T08:07:52.690Z,15.63
2018-11-25T08:10:21.434Z,13.07
2018-11-25T08:12:50.045Z,33.40
2018-11-25T08:15:19.442Z,22.20
2018-11-25T08:17:48.075Z,15.33
2018-11-25T08:20:21.322Z,20.53
2018-11-25T08:22:49.998Z,16.90
2018-11-25T08:25:21.436Z,15.93
2018-11-25T08:27:50.249Z,19.73
2018-11-25T08:30:19.939Z,17.93
2018-11-25T08:32:48.974Z,18.33
2018-11-25T08:35:19.941Z,20.30
2018-11-25T08:37:48.525Z,19.63
2018-11-25T08:40:18.412Z,20.07
2018-11-25T08:42:47.072Z,17.63
2018-11-25T08:45:15.878Z,18.67
2018-11-25T08:47:44.600Z,20.17
2018-11-25T08:50:15.156Z,20.53
2018-11-25T08:52:44.596Z,16.07
2018-11-25T08:55:15.320Z,18.60
2018-11-25T08:57:43.942Z,19.73
2018-11-25T09:00:14.283Z,20.10
2018-11-25T09:02:42.893Z,18.10
2018-11-25T09:05:12.476Z,20.93
2018-11-25T09:07:41.164Z,19.47
2018-11-25T09:10:11.952Z,18.53
2018-11-25T09:12:40.746Z,18.40
2018-11-25T09:15:12.778Z,17.63
2018-11-25T09:17:41.570Z,20.03
2018-11-25T09:20:11.749Z,15.40
2018-11-25T09:22:42.253Z,19.10
2018-11-25T09:25:14.154Z,21.77
2018-11-25T09:27:42.843Z,22.13
2018-11-25T09:30:16.559Z,16.47
2018-11-25T09:32:45.111Z,13.93
2018-11-25T09:35:13.662Z,13.37
2018-11-25T09:37:42.325Z,21.07
2018-11-25T09:40:12.222Z,24.83
2018-11-25T09:42:40.839Z,20.60
2018-11-25T09:45:13.499Z,23.40
2018-11-25T09:47:42.371Z,21.50
2018-11-25T09:50:13.121Z,18.10
2018-11-25T09:52:41.698Z,20.23
2018-11-25T09:55:12.157Z,21.20
2018-11-25T09:57:41.429Z,19.77
2018-11-25T10:00:13.257Z,19.53
2018-11-25T10:02:41.801Z,22.07
2018-11-25T10:05:10.918Z,17.97
2018-11-25T10:07:39.681Z,19.57
2018-11-25T10:10:15.386Z,19.80
2018-11-25T10:12:43.992Z,22.27
2018-11-25T10:15:13.813Z,22.17
2018-11-25T10:17:42.347Z,23.80
2018-11-25T10:20:13.266Z,22.83
2018-11-25T10:22:43.110Z,20.87
2018-11-25T10:25:12.893Z,23.47
2018-11-25T10:27:41.490Z,21.33
2018-11-25T10:30:26.213Z,23.17
2018-11-25T10:32:56.917Z,22.13
2018-11-25T10:35:25.452Z,19.57
2018-11-25T10:37:54.011Z,16.60
2018-11-25T10:40:23.679Z,17.83
2018-11-25T10:42:52.248Z,20.90
2018-11-25T10:45:22.025Z,21.63
2018-11-25T10:47:50.592Z,19.93
2018-11-25T10:50:19.972Z,22.80
2018-11-25T10:52:49.363Z,18.90
2018-11-25T10:55:19.703Z,21.40
2018-11-25T10:57:49.446Z,22.90
2018-11-25T11:00:33.444Z,19.97
2018-11-25T11:03:07.399Z,22.17
2018-11-25T11:05:41.377Z,18.47
2018-11-25T11:08:10.345Z,21.33
2018-11-25T11:10:38.879Z,23.13
2018-11-25T11:13:08.222Z,23.50
2018-11-25T11:15:36.877Z,19.70
2018-11-25T11:18:05.683Z,24.30
2018-11-25T11:20:34.236Z,19.63
2018-11-25T11:23:02.889Z,22.83
2018-11-25T11:25:31.479Z,19.33
2018-11-25T11:28:00.112Z,20.30
2018-11-25T11:30:30.523Z,24.77
2018-11-25T11:32:59.588Z,20.33
2018-11-25T11:35:33.816Z,19.27
2018-11-25T11:38:02.461Z,19.10
2018-11-25T11:40:31.057Z,19.40
2018-11-25T11:42:59.696Z,16.23
2018-11-25T11:45:28.698Z,19.60
2018-11-25T11:47:57.279Z,19.60
2018-11-25T11:50:27.552Z,19.30
2018-11-25T11:52:58.241Z,14.57
2018-11-25T11:55:33.401Z,20.00
2018-11-25T11:58:04.052Z,16.90
2018-11-25T12:00:34.058Z,19.23
2018-11-25T12:03:02.692Z,18.53
2018-11-25T12:05:32.269Z,20.07
2018-11-25T12:08:01.527Z,14.33
2018-11-25T12:10:30.543Z,13.63
2018-11-25T12:12:59.390Z,17.07
2018-11-25T12:15:31.195Z,16.90
2018-11-25T12:17:59.006Z,17.23
2018-11-25T12:20:30.830Z,15.53
2018-11-25T12:22:59.783Z,17.07
2018-11-25T12:25:28.370Z,17.30
2018-11-25T12:27:58.765Z,13.40
2018-11-25T12:30:28.035Z,13.20
2018-11-25T12:32:56.713Z,15.40
2018-11-25T12:35:25.989Z,12.27
2018-11-25T12:37:54.847Z,17.20
2018-11-25T12:40:24.787Z,14.77
2018-11-25T12:42:56.554Z,16.37
2018-11-25T12:45:25.196Z,16.73
2018-11-25T12:47:53.840Z,12.10
2018-11-25T12:50:24.634Z,14.87
2018-11-25T12:52:53.802Z,18.17
2018-11-25T12:55:23.745Z,14.50
2018-11-25T12:57:52.616Z,17.90
2018-11-25T13:00:29.799Z,13.97
2018-11-25T13:02:58.480Z,17.40
2018-11-25T13:05:27.415Z,16.87
2018-11-25T13:07:56.338Z,19.93
2018-11-25T13:10:25.003Z,20.13
2018-11-25T13:12:53.696Z,19.57
2018-11-25T13:15:22.424Z,21.50
2018-11-25T13:17:51.098Z,18.80
2018-11-25T13:20:20.123Z,17.80
2018-11-25T13:22:49.325Z,18.60
2018-11-25T13:25:19.384Z,18.20
2018-11-25T13:27:49.050Z,19.77
2018-11-25T13:30:22.004Z,19.37
2018-11-25T13:32:52.041Z,18.27
2018-11-25T13:35:20.940Z,17.73
2018-11-25T13:41:25.022Z,20.47
2018-11-25T13:43:57.135Z,19.80
2018-11-25T13:46:30.391Z,19.40
2018-11-25T13:48:59.599Z,18.70
2018-11-25T13:51:29.301Z,18.37
2018-11-25T13:53:59.584Z,18.97
2018-11-25T13:56:28.921Z,18.70
2018-11-25T13:58:57.586Z,17.27
2018-11-25T14:01:33.483Z,18.63
2018-11-25T14:04:02.157Z,16.97
2018-11-25T14:06:31.365Z,18.00
2018-11-25T14:09:09.894Z,16.70
2018-11-25T14:11:39.312Z,21.00
2018-11-25T14:14:08.462Z,16.53
2018-11-25T14:16:37.088Z,13.57
2018-11-25T14:19:06.309Z,12.63
2018-11-25T14:21:35.182Z,17.20
2018-11-25T14:24:04.074Z,17.27
2018-11-25T14:26:39.520Z,18.23
2018-11-25T14:29:08.460Z,18.50
2018-11-25T14:31:39.851Z,19.80
2018-11-25T14:34:10.772Z,16.60
2018-11-25T14:36:39.564Z,18.40
2018-11-25T14:39:12.370Z,16.83
2018-11-25T14:41:53.811Z,15.30
2018-11-25T14:44:23.133Z,19.33
2018-11-25T14:46:51.995Z,19.83
2018-11-25T14:49:21.132Z,18.33
2018-11-25T14:51:49.902Z,18.53
2018-11-25T14:54:18.548Z,17.07
2018-11-25T14:56:47.119Z,19.30
2018-11-25T14:59:30.885Z,20.03
2018-11-25T15:01:59.587Z,21.13
2018-11-25T15:04:29.346Z,18.90
2018-11-25T15:06:56.882Z,22.23
2018-11-25T15:09:25.519Z,20.60
2018-11-25T15:11:54.886Z,20.93
2018-11-25T15:14:23.525Z,20.10
2018-11-25T15:16:53.419Z,20.33
2018-11-25T15:19:22.055Z,22.03
2018-11-25T15:21:50.769Z,16.53
2018-11-25T15:24:19.420Z,16.47
2018-11-25T15:26:48.862Z,20.93
2018-11-25T15:29:17.403Z,18.03
2018-11-25T15:31:47.618Z,19.60
2018-11-25T15:34:16.848Z,20.87
2018-11-25T15:36:46.157Z,19.47
2018-11-25T15:39:14.787Z,19.23
2018-11-25T15:41:43.442Z,20.23
2018-11-25T15:44:12.188Z,19.83
2018-11-25T15:46:41.062Z,24.27
2018-11-25T15:49:11.798Z,22.93
2018-11-25T15:51:40.494Z,22.63
2018-11-25T15:54:09.311Z,24.03
2018-11-25T15:56:38.067Z,19.30
2018-11-25T15:59:06.790Z,22.90
2018-11-25T16:01:35.356Z,23.47
2018-11-25T16:04:04.055Z,19.67
2018-11-25T16:06:37.733Z,23.53
2018-11-25T16:09:07.985Z,18.83
2018-11-25T16:11:36.534Z,26.03
2018-11-25T16:14:05.366Z,22.30
2018-11-25T16:16:34.067Z,23.83
2018-11-25T16:19:02.808Z,23.43
2018-11-25T16:21:31.526Z,22.63
2018-11-25T16:24:00.232Z,21.53
2018-11-25T16:26:34.202Z,24.60
2018-11-25T16:29:11.366Z,25.27
2018-11-25T16:31:43.598Z,21.63
2018-11-25T16:34:12.327Z,23.57
2018-11-25T16:36:41.081Z,24.77
2018-11-25T16:39:11.565Z,23.97
2018-11-25T16:41:40.439Z,24.43
2018-11-25T16:44:09.106Z,23.83
2018-11-25T16:46:39.223Z,21.13
2018-11-25T16:49:09.658Z,21.77
2018-11-25T16:51:39.032Z,24.57
2018-11-25T16:54:09.049Z,27.10
2018-11-25T16:56:39.000Z,25.07
2018-11-25T16:59:07.730Z,24.67
2018-11-25T17:01:38.101Z,24.57
2018-11-25T17:04:12.344Z,20.47
2018-11-25T17:06:46.933Z,22.37
2018-11-25T17:10:41.003Z,23.53
2018-11-25T17:13:09.611Z,19.00
2018-11-25T17:15:47.213Z,20.27
2018-11-25T17:18:17.233Z,20.97
2018-11-25T17:20:51.618Z,24.53
2018-11-25T17:23:20.881Z,21.77
2018-11-25T17:25:50.944Z,18.87
2018-11-25T17:28:19.629Z,22.17
2018-11-25T17:30:48.238Z,24.30
2018-11-25T17:33:16.815Z,23.50
2018-11-25T17:35:46.634Z,24.10
2018-11-25T17:38:15.226Z,27.13
2018-11-25T17:40:43.959Z,24.57
2018-11-25T17:43:15.519Z,26.97
2018-11-25T17:45:45.945Z,22.67
2018-11-25T17:48:14.551Z,26.47
2018-11-25T17:50:44.775Z,28.27
2018-11-25T17:53:20.439Z,29.97
2018-11-25T17:55:42.030Z,28.97
2018-11-25T17:58:10.698Z,26.17
2018-11-25T18:01:00.897Z,26.43
2018-11-25T18:03:30.955Z,26.90
2018-11-25T18:06:00.395Z,23.50
2018-11-25T18:08:32.510Z,24.43
2018-11-25T18:11:01.225Z,28.17
2018-11-25T18:13:33.026Z,29.27
2018-11-25T18:16:03.257Z,27.47
2018-11-25T18:18:37.106Z,32.67
2018-11-25T18:21:09.194Z,29.23
2018-11-25T18:23:37.791Z,29.27
2018-11-25T18:26:06.676Z,25.97
2018-11-25T18:28:35.311Z,25.47
2018-11-25T18:31:03.941Z,26.10
2018-11-25T18:33:32.566Z,25.40
2018-11-25T18:36:01.237Z,26.10
2018-11-25T18:38:29.853Z,27.53
2018-11-25T18:40:58.522Z,27.53
2018-11-25T18:43:27.256Z,21.80
2018-11-25T18:45:59.364Z,26.33
2018-11-25T18:48:24.750Z,24.83
2018-11-25T18:50:53.425Z,27.80
2018-11-25T18:53:22.103Z,28.77
2018-11-25T18:55:49.677Z,23.63
2018-11-25T18:58:18.895Z,26.27
2018-11-25T19:00:56.412Z,23.07
2018-11-25T19:03:25.050Z,22.37
2018-11-25T19:05:53.690Z,26.07
2018-11-25T19:08:22.987Z,23.90
2018-11-25T19:10:52.078Z,21.63
2018-11-25T19:13:20.729Z,18.27
2018-11-25T19:15:49.546Z,17.30
2018-11-25T19:18:18.213Z,25.23
2018-11-25T19:20:46.912Z,23.03
2018-11-25T19:23:15.641Z,22.90
2018-11-25T19:25:44.377Z,20.97
2018-11-25T19:28:13.014Z,16.97
2018-11-25T19:30:41.688Z,15.47
2018-11-25T19:33:10.800Z,20.97
2018-11-25T19:35:39.511Z,21.03
2018-11-25T19:38:09.012Z,20.20
2018-11-25T19:40:37.741Z,22.70
2018-11-25T19:43:07.794Z,23.13
2018-11-25T19:45:36.572Z,18.60
2018-11-25T19:48:05.296Z,21.23
2018-11-25T19:50:36.393Z,21.57
2018-11-25T19:53:05.861Z,18.63
2018-11-25T19:55:34.440Z,18.37
2018-11-25T19:58:03.141Z,19.63
2018-11-25T20:00:31.848Z,18.50
2018-11-25T20:03:00.562Z,20.37
2018-11-25T20:05:29.106Z,19.60
2018-11-25T20:07:57.681Z,18.37
2018-11-25T20:10:27.985Z,21.73
2018-11-25T20:12:57.735Z,21.63
2018-11-25T20:15:26.355Z,17.27
2018-11-25T20:17:54.950Z,19.87
2018-11-25T20:20:25.456Z,20.13
2018-11-25T20:22:54.849Z,23.27
2018-11-25T20:25:25.497Z,20.47
2018-11-25T20:27:56.326Z,22.93
2018-11-25T20:30:30.656Z,20.83
2018-11-25T20:33:06.748Z,22.23
2018-11-25T20:35:35.382Z,23.30
2018-11-25T20:38:09.565Z,25.53
2018-11-25T20:40:41.402Z,21.43
2018-11-25T20:43:12.691Z,21.73
2018-11-25T20:45:47.486Z,24.23
2018-11-25T20:48:16.080Z,24.63
2018-11-25T20:50:45.088Z,19.63
2018-11-25T20:54:22.482Z,21.13
2018-11-25T20:56:54.753Z,22.27
2018-11-25T20:59:25.102Z,19.47
2018-11-25T21:01:56.680Z,22.93
2018-11-25T21:04:31.849Z,20.03
2018-11-25T21:07:01.205Z,21.93
2018-11-25T21:09:30.292Z,25.20
2018-11-25T21:11:59.852Z,24.77
2018-11-25T21:14:28.864Z,24.47
2018-11-25T21:16:58.105Z,25.10
2018-11-25T21:19:26.663Z,26.10
2018-11-25T21:21:56.159Z,27.10
2018-11-25T21:24:24.839Z,26.20
2018-11-25T21:26:54.500Z,24.57
2018-11-25T21:29:23.337Z,22.93
2018-11-25T21:31:51.973Z,23.77
2018-11-25T21:34:20.539Z,22.30
2018-11-25T21:36:49.045Z,21.97
2018-11-25T21:39:17.578Z,25.27
2018-11-25T21:41:46.147Z,24.73
2018-11-25T21:44:14.706Z,25.17
2018-11-25T21:46:43.420Z,24.70
2018-11-25T21:49:12.034Z,23.57
2018-11-25T21:51:40.633Z,27.00
2018-11-25T21:54:09.875Z,24.57
2018-11-25T21:56:39.327Z,21.77
2018-11-25T21:59:07.959Z,26.00
2018-11-25T22:01:36.455Z,26.37
2018-11-25T22:04:05.535Z,28.17
2018-11-25T22:06:34.093Z,25.47
2018-11-25T22:09:07.247Z,25.57
2018-11-25T22:11:35.784Z,27.17
2018-11-25T22:14:04.566Z,26.27
2018-11-25T22:16:33.385Z,26.73
2018-11-25T22:19:01.963Z,25.37
2018-11-25T22:21:30.610Z,25.87
2018-11-25T22:23:59.237Z,26.50
2018-11-25T22:26:27.808Z,25.37
2018-11-25T22:28:56.302Z,25.53
2018-11-25T22:31:25.530Z,25.77
2018-11-25T22:33:54.099Z,24.50
2018-11-25T22:36:22.756Z,26.90
2018-11-25T22:38:51.316Z,27.27
2018-11-25T22:41:19.827Z,26.10
2018-11-25T22:43:49.591Z,25.40
2018-11-25T22:46:18.095Z,26.43
2018-11-25T22:48:46.872Z,27.83
2018-11-25T22:51:15.390Z,28.37
2018-11-25T22:53:44.009Z,30.47
2018-11-25T22:56:12.775Z,25.43
2018-11-25T22:58:41.328Z,26.67
2018-11-25T23:01:11.405Z,22.07
2018-11-25T23:03:40.330Z,24.67
2018-11-25T23:06:24.075Z,27.63
2018-11-25T23:08:53.060Z,19.97
2018-11-25T23:11:21.991Z,21.97
2018-11-25T23:13:50.972Z,25.37
2018-11-25T23:16:19.884Z,22.00
2018-11-25T23:18:48.799Z,24.70
2018-11-25T23:21:17.707Z,21.20
2018-11-25T23:23:46.655Z,24.00
2018-11-25T23:26:15.687Z,23.47
2018-11-25T23:28:44.578Z,21.43
2018-11-25T23:31:13.421Z,23.33
2018-11-25T23:33:42.345Z,25.33
2018-11-25T23:36:11.260Z,23.80
2018-11-25T23:38:39.802Z,23.17
2018-11-25T23:41:08.345Z,26.87
2018-11-25T23:43:37.689Z,25.50
2018-11-25T23:46:06.372Z,23.17
2018-11-25T23:48:34.919Z,25.37
2018-11-25T23:51:03.421Z,22.27
2018-11-25T23:53:31.945Z,27.03
2018-11-25T23:56:00.422Z,22.47
2018-11-25T23:58:28.923Z,25.83
